Terminal Aerodrome Forecast
Issued by NWS Grand Forks, ND

Home | Current Version | Previous Version | Text Only | Print | Product List | Glossary On
Versions: 1 2 3 4 5 6 7 8 9 10 11 12 13 14 15
000
FTUS43 KFGF 161400 AAA
TAFFAR
TAF AMD
KFAR 161427Z 1614/1712 05017G23KT P6SM OVC040
     FM161700 04022G30KT P6SM BKN050
     FM170300 02012KT P6SM BKN060=

USA.gov is the U.S. government's official web portal to all federal, state and local government web resources and services.